Time;durP1;ratioP1;P1;durP2;ratioP2;P2;SDS_P1;SDS_P2;PMS_P1;PMS_P2;Temp;Humidity;BMP_temperature;BMP_pressure;BME280_temperature;BME280_humidity;BME280_pressure;Samples;Min_cycle;Max_cycle;Signal;HPM_P1;HPM_P2
2022/08/04 00:02:07;;;;;;;6.30;4.60;;;;;;;16.53;81.56;96953.98;108257;1270;35443;-85
2022/08/04 00:04:48;;;;;;;4.70;4.20;;;;;;;16.58;81.33;96951.80;108337;1270;22649;-85
2022/08/04 00:07:26;;;;;;;5.40;4.90;;;;;;;16.58;81.10;96953.09;108341;1270;22644;-85
2022/08/04 00:10:02;;;;;;;5.80;4.90;;;;;;;16.43;81.17;96949.60;108299;1270;22832;-85
2022/08/04 00:12:37;;;;;;;6.10;5.40;;;;;;;16.23;81.61;96950.33;108258;1270;22565;-85
2022/08/04 00:15:15;;;;;;;6.30;4.50;;;;;;;16.18;82.29;96947.82;108346;1270;22563;-84
2022/08/04 00:17:51;;;;;;;5.20;4.70;;;;;;;16.28;82.32;96953.13;108334;1270;22560;-84
2022/08/04 00:20:24;;;;;;;5.40;4.70;;;;;;;16.35;82.06;96952.65;108263;1270;31661;-85
2022/08/04 00:22:57;;;;;;;5.30;4.80;;;;;;;16.41;81.81;96951.85;108317;1269;25284;-85
2022/08/04 00:25:29;;;;;;;5.20;4.60;;;;;;;16.44;81.69;96951.86;108393;1270;22527;-85
2022/08/04 00:28:02;;;;;;;5.60;4.80;;;;;;;16.48;81.56;96955.42;108361;1270;22529;-84
2022/08/04 00:30:33;;;;;;;7.30;4.70;;;;;;;16.46;81.36;96956.52;108170;1270;75627;-84
2022/08/04 00:33:07;;;;;;;5.70;4.80;;;;;;;16.44;81.59;96958.41;108214;1271;22643;-86
2022/08/04 00:35:40;;;;;;;5.90;4.90;;;;;;;16.42;81.76;96954.17;108226;1271;22561;-86
2022/08/04 00:38:13;;;;;;;6.10;5.00;;;;;;;16.44;81.97;96955.58;108259;1270;25371;-86
2022/08/04 00:40:55;;;;;;;6.60;4.90;;;;;;;16.52;82.03;96954.46;108184;1270;31468;-86
2022/08/04 00:43:33;;;;;;;5.60;4.80;;;;;;;16.56;81.60;96958.94;108307;1270;25437;-86
2022/08/04 00:46:41;;;;;;;6.60;4.60;;;;;;;16.37;81.11;96956.39;108414;1270;22607;-86
2022/08/04 00:49:49;;;;;;;5.40;4.90;;;;;;;16.14;81.60;96961.20;107963;1270;455291;-86
2022/08/04 00:52:42;;;;;;;5.60;5.10;;;;;;;15.86;82.10;96961.01;108113;1270;31503;-86
2022/08/04 00:55:45;;;;;;;6.00;5.00;;;;;;;15.76;82.99;96961.66;108342;1270;22533;-86
2022/08/04 00:58:29;;;;;;;5.80;5.20;;;;;;;15.73;83.37;96961.83;108364;1270;22560;-87
2022/08/04 01:01:04;;;;;;;6.60;5.30;;;;;;;15.62;83.69;96957.11;107972;1270;182682;-87
2022/08/04 01:03:58;;;;;;;6.10;4.90;;;;;;;15.62;84.19;96958.45;108332;1270;24282;-87
2022/08/04 01:06:43;;;;;;;5.80;5.20;;;;;;;15.61;84.32;96958.63;108202;1270;23198;-87
2022/08/04 01:09:27;;;;;;;5.80;5.20;;;;;;;15.59;84.31;96956.64;108287;1270;23777;-87
2022/08/04 01:12:21;;;;;;;5.50;5.00;;;;;;;15.49;84.42;96958.18;108226;1270;29944;-87
2022/08/04 01:15:06;;;;;;;6.40;4.80;;;;;;;15.46;84.70;96959.67;108353;1270;23727;-87
2022/08/04 01:17:49;;;;;;;5.50;4.90;;;;;;;15.44;84.96;96954.89;108316;1270;25410;-87
2022/08/04 01:20:25;;;;;;;5.90;4.80;;;;;;;15.44;85.33;96952.76;108216;1270;30747;-87
2022/08/04 01:23:35;;;;;;;7.70;5.20;;;;;;;15.42;85.42;96952.39;108301;1270;22618;-87
2022/08/04 01:26:43;;;;;;;7.00;5.40;;;;;;;15.47;85.53;96954.64;108359;1270;25468;-86
2022/08/04 01:29:15;;;;;;;5.40;4.60;;;;;;;15.53;85.69;96950.39;108365;1270;22533;-85
2022/08/04 01:32:04;;;;;;;5.20;4.60;;;;;;;15.50;85.40;96947.41;108286;1270;34135;-86
2022/08/04 01:34:42;;;;;;;6.00;5.50;;;;;;;15.45;85.78;96947.45;108432;1270;22524;-85
2022/08/04 01:37:29;;;;;;;6.70;5.20;;;;;;;15.37;85.68;96946.24;108330;1270;25368;-85
2022/08/04 01:40:05;;;;;;;6.30;4.80;;;;;;;15.27;85.89;96946.84;108368;1270;22554;-85
2022/08/04 01:42:38;;;;;;;5.20;4.70;;;;;;;15.20;86.37;96947.04;108380;1270;23727;-86
2022/08/04 01:45:12;;;;;;;6.70;5.30;;;;;;;15.20;86.74;96943.09;108417;1270;23204;-85
2022/08/04 01:47:50;;;;;;;6.20;5.50;;;;;;;15.24;86.78;96945.88;108365;1270;22537;-86
2022/08/04 01:50:22;;;;;;;6.90;4.90;;;;;;;15.34;86.93;96945.02;108303;1270;32535;-87
2022/08/04 01:52:56;;;;;;;6.00;5.30;;;;;;;15.36;86.70;96944.45;108401;1269;22568;-86
2022/08/04 01:55:30;;;;;;;7.80;5.90;;;;;;;15.42;86.71;96941.95;108403;1268;22588;-87
2022/08/04 01:58:05;;;;;;;5.10;4.60;;;;;;;15.52;86.51;96944.91;108279;1270;22583;-87
2022/08/04 02:00:45;;;;;;;6.20;5.60;;;;;;;15.59;86.08;96944.02;108329;1270;41092;-85
2022/08/04 02:03:17;;;;;;;6.80;5.10;;;;;;;15.63;85.99;96940.73;108326;1270;22554;-86
2022/08/04 02:05:50;;;;;;;5.20;4.30;;;;;;;15.66;85.51;96937.67;108393;1270;24223;-87
2022/08/04 02:08:33;;;;;;;5.60;4.90;;;;;;;15.67;85.22;96940.48;108375;1270;22620;-86
2022/08/04 02:11:11;;;;;;;5.50;4.80;;;;;;;15.70;85.23;96941.05;106780;1270;2070612;-86
2022/08/04 02:13:54;;;;;;;6.30;4.70;;;;;;;15.69;85.15;96939.89;108319;1270;22691;-85
2022/08/04 02:16:33;;;;;;;5.10;4.50;;;;;;;15.62;85.02;96932.36;108289;1270;23148;-85
2022/08/04 02:19:15;;;;;;;4.50;4.10;;;;;;;15.57;84.98;96931.86;108377;1270;22451;-85
2022/08/04 02:21:56;;;;;;;6.20;4.30;;;;;;;15.58;85.25;96927.41;108304;1269;29880;-84
2022/08/04 02:24:31;;;;;;;4.90;4.10;;;;;;;15.58;85.02;96931.10;108405;1270;22577;-86
2022/08/04 02:27:06;;;;;;;4.60;3.90;;;;;;;15.68;84.83;96925.39;108386;1270;22592;-87
2022/08/04 02:29:47;;;;;;;5.80;4.30;;;;;;;15.71;84.37;96928.73;108330;1270;22529;-85
2022/08/04 02:32:37;;;;;;;5.70;4.70;;;;;;;15.63;84.20;96928.40;108306;1270;34964;-85
2022/08/04 02:35:15;;;;;;;6.20;4.60;;;;;;;15.62;84.40;96926.86;108385;1270;22524;-85
2022/08/04 02:37:57;;;;;;;5.20;4.70;;;;;;;15.68;84.41;96927.69;108348;1270;25254;-85
2022/08/04 02:40:30;;;;;;;6.40;4.60;;;;;;;15.72;84.09;96926.05;108276;1270;38080;-86
2022/08/04 02:43:07;;;;;;;6.70;4.90;;;;;;;15.74;84.02;96925.23;108390;1270;22592;-85
2022/08/04 02:45:41;;;;;;;5.60;4.70;;;;;;;15.75;83.94;96921.46;108408;1270;22495;-85
2022/08/04 02:48:14;;;;;;;5.90;4.60;;;;;;;15.79;83.83;96917.39;108377;1270;22554;-85
2022/08/04 02:50:47;;;;;;;5.50;4.80;;;;;;;15.84;83.74;96918.70;108221;1270;26029;-85
2022/08/04 02:53:21;;;;;;;4.90;4.30;;;;;;;15.89;83.71;96920.49;108399;1270;24276;-85
2022/08/04 02:55:54;;;;;;;4.50;4.10;;;;;;;15.93;83.36;96921.36;108389;1270;22537;-86
2022/08/04 02:58:32;;;;;;;4.60;4.20;;;;;;;16.00;83.20;96919.22;108358;1270;22562;-86
2022/08/04 03:01:04;;;;;;;5.00;4.50;;;;;;;16.01;82.83;96926.23;108414;1270;38032;-86
2022/08/04 03:03:41;;;;;;;5.90;4.50;;;;;;;16.03;82.66;96925.02;108396;1270;25396;-86
2022/08/04 03:09:39;;;;;;;5.50;4.80;;;;;;;16.13;82.42;96924.79;104636;1309;546088;-85
2022/08/04 03:12:51;;;;;;;5.10;4.60;;;;;;;16.14;82.17;96926.66;106779;1283;125500;-86
2022/08/04 03:15:49;;;;;;;5.20;4.70;;;;;;;16.06;81.95;96924.36;108176;1273;22529;-84
2022/08/04 03:18:51;;;;;;;5.90;4.60;;;;;;;15.98;82.09;96923.64;108173;1273;23501;-84
2022/08/04 03:22:11;;;;;;;4.80;4.40;;;;;;;15.99;82.30;96924.16;108024;1273;115145;-84
2022/08/04 03:25:14;;;;;;;5.60;4.60;;;;;;;15.95;81.91;96923.73;108093;1270;22553;-84
2022/08/04 03:28:27;;;;;;;5.70;5.10;;;;;;;15.89;81.92;96925.26;108343;1268;22960;-84
2022/08/04 03:31:31;;;;;;;5.90;4.10;;;;;;;15.90;82.22;96926.14;108050;1270;82350;-84
2022/08/04 03:34:16;;;;;;;4.50;4.00;;;;;;;15.98;82.18;96925.32;108310;1270;24329;-84
2022/08/04 03:37:38;;;;;;;4.10;3.70;;;;;;;16.05;82.06;96925.20;108388;1268;25960;-84
2022/08/04 03:40:49;;;;;;;4.70;4.30;;;;;;;16.06;81.51;96927.95;107898;1273;35657;-84
2022/08/04 03:43:32;;;;;;;;;;;;;;;15.97;81.62;96931.70;108415;1269;22526;-84
2022/08/04 03:46:36;;;;;;;4.00;3.60;;;;;;;16.02;81.81;96935.37;108291;1270;22553;-84
2022/08/04 03:55:38;;;;;;;4.90;4.10;;;;;;;16.20;81.39;96939.53;107648;1280;22609;-84
2022/08/04 03:58:40;;;;;;;6.00;4.50;;;;;;;16.23;81.50;96939.83;107971;1274;22663;-84
2022/08/04 04:01:24;;;;;;;5.10;3.90;;;;;;;16.21;81.40;96938.02;108116;1274;27183;-83
2022/08/04 04:04:17;;;;;;;5.90;4.00;;;;;;;16.22;81.50;96943.50;108207;1274;22674;-83
2022/08/04 04:07:22;;;;;;;4.90;3.80;;;;;;;16.22;81.63;96941.64;108171;1271;210332;-83
2022/08/04 04:10:13;;;;;;;4.20;3.80;;;;;;;16.30;81.89;96942.27;108286;1271;24225;-83
2022/08/04 04:13:03;;;;;;;3.50;3.20;;;;;;;16.35;82.24;96940.65;108407;1271;22589;-85
2022/08/04 04:15:49;;;;;;;4.30;3.80;;;;;;;16.37;82.26;96941.70;108531;1268;22621;-85
2022/08/04 04:18:45;;;;;;;4.40;4.00;;;;;;;16.44;82.66;96942.13;108482;1268;22569;-84
2022/08/04 04:21:29;;;;;;;4.00;3.60;;;;;;;16.57;82.85;96940.12;108196;1267;77689;-85
2022/08/04 04:24:13;;;;;;;4.90;3.80;;;;;;;16.74;82.78;96941.48;108535;1266;22567;-85
2022/08/04 04:27:01;;;;;;;3.90;3.60;;;;;;;16.85;82.39;96938.71;108530;1268;22606;-84
2022/08/04 04:30:00;;;;;;;4.30;3.90;;;;;;;16.97;82.07;96938.44;108537;1268;22626;-84
2022/08/04 04:32:42;;;;;;;4.40;4.00;;;;;;;17.13;82.10;96939.74;108537;1268;22790;-85
2022/08/04 04:35:23;;;;;;;5.30;4.70;;;;;;;17.37;82.72;96938.45;108474;1267;22760;-84
2022/08/04 04:38:16;;;;;;;5.10;3.70;;;;;;;17.61;82.94;96940.40;108505;1268;23237;-84
2022/08/04 04:40:56;;;;;;;5.40;4.30;;;;;;;17.85;82.92;96944.02;108332;1267;27947;-84
2022/08/04 04:43:48;;;;;;;4.80;4.00;;;;;;;18.08;82.31;96951.20;108543;1268;22689;-85
2022/08/04 04:46:32;;;;;;;3.60;3.30;;;;;;;18.31;81.99;96952.14;108543;1267;22672;-84
2022/08/04 04:49:12;;;;;;;4.50;3.70;;;;;;;18.46;81.21;96955.96;108548;1267;22520;-85
2022/08/04 04:51:49;;;;;;;5.20;3.60;;;;;;;18.74;81.21;96955.44;108396;1266;32702;-84
2022/08/04 04:54:31;;;;;;;4.10;3.30;;;;;;;20.34;82.67;96952.44;108524;1267;23234;-84
2022/08/04 04:57:09;;;;;;;4.70;3.90;;;;;;;23.06;81.64;96952.58;108539;1268;24383;-84
2022/08/04 04:59:46;;;;;;;5.40;4.10;;;;;;;25.62;77.24;96951.48;108484;1267;24325;-84
2022/08/04 05:02:59;;;;;;;5.30;4.30;;;;;;;27.79;71.87;96954.48;108318;1267;127155;-84
2022/08/04 05:05:41;;;;;;;5.20;4.20;;;;;;;29.93;64.58;96952.52;108411;1267;22583;-84
2022/08/04 05:08:46;;;;;;;6.50;4.50;;;;;;;30.93;59.57;96958.09;108511;1268;23092;-83
2022/08/04 05:11:36;;;;;;;5.40;4.20;;;;;;;32.03;56.94;96962.44;108440;1268;27673;-77
2022/08/04 05:14:11;;;;;;;6.10;4.80;;;;;;;32.70;51.35;96963.55;108437;1267;24228;-77
2022/08/04 05:16:46;;;;;;;5.80;4.40;;;;;;;32.73;49.82;96963.83;108334;1267;22544;-79
2022/08/04 05:19:31;;;;;;;4.60;4.20;;;;;;;33.31;49.19;96957.25;108500;1268;25227;-79
2022/08/04 05:22:07;;;;;;;4.80;3.90;;;;;;;34.40;47.47;96959.45;108456;1267;32006;-78
2022/08/04 05:24:43;;;;;;;4.50;4.00;;;;;;;34.83;43.84;96965.75;108540;1268;22662;-79
2022/08/04 05:27:20;;;;;;;4.10;3.70;;;;;;;34.64;42.23;96969.66;108532;1266;22520;-78
2022/08/04 05:29:56;;;;;;;4.60;4.20;;;;;;;35.08;42.69;96970.19;108510;1268;22532;-78
2022/08/04 05:32:32;;;;;;;5.50;5.00;;;;;;;35.77;40.47;96971.05;108496;1268;22676;-76
2022/08/04 05:35:09;;;;;;;4.70;4.30;;;;;;;36.35;40.23;96971.86;108400;1267;23128;-77
2022/08/04 05:37:44;;;;;;;4.60;4.20;;;;;;;37.53;38.96;96969.45;108493;1268;22553;-78
2022/08/04 05:40:18;;;;;;;4.60;4.00;;;;;;;37.78;36.61;96964.94;108420;1266;26219;-78
2022/08/04 05:42:51;;;;;;;4.20;3.80;;;;;;;37.62;35.91;96963.80;108485;1267;22555;-78
2022/08/04 05:45:24;;;;;;;4.60;4.00;;;;;;;38.01;36.02;96965.34;108536;1267;23958;-78
2022/08/04 05:47:58;;;;;;;4.00;3.60;;;;;;;39.11;35.36;96963.95;108515;1267;24149;-78
2022/08/04 05:50:29;;;;;;;4.20;3.80;;;;;;;39.75;33.95;96968.27;108447;1267;23633;-78
2022/08/04 05:53:02;;;;;;;4.60;4.20;;;;;;;39.98;32.53;96967.05;108514;1268;22568;-78
2022/08/04 05:55:34;;;;;;;4.40;3.70;;;;;;;40.09;31.04;96973.04;108402;1267;22552;-78
2022/08/04 05:58:06;;;;;;;4.90;4.00;;;;;;;39.89;31.86;96966.95;108434;1267;22564;-77
2022/08/04 06:00:41;;;;;;;3.90;3.30;;;;;;;40.41;30.93;96975.98;108338;1267;44378;-79
2022/08/04 06:03:14;;;;;;;4.10;3.20;;;;;;;40.65;30.37;96977.02;108599;1266;23453;-80
2022/08/04 06:05:48;;;;;;;3.20;2.90;;;;;;;41.45;30.22;96975.08;108590;1267;25454;-80
2022/08/04 06:08:19;;;;;;;4.00;3.70;;;;;;;42.23;29.38;96977.09;108623;1267;22556;-80
2022/08/04 06:10:53;;;;;;;6.90;4.00;;;;;;;42.91;28.83;96978.90;108594;1266;27492;-80
2022/08/04 06:13:29;;;;;;;4.70;4.20;;;;;;;43.43;28.08;96982.67;108562;1267;25245;-79
2022/08/04 06:16:02;;;;;;;4.30;3.90;;;;;;;43.96;27.24;96979.94;108610;1268;22541;-80
2022/08/04 06:18:39;;;;;;;4.50;3.50;;;;;;;44.42;26.67;96976.39;108549;1266;22564;-80
2022/08/04 06:21:13;;;;;;;3.40;3.00;;;;;;;44.58;25.76;96973.07;108510;1267;29582;-80
2022/08/04 06:23:45;;;;;;;4.50;3.00;;;;;;;43.75;24.64;96977.89;108617;1266;24049;-80
2022/08/04 06:26:18;;;;;;;3.40;2.70;;;;;;;43.50;25.67;96978.86;108623;1267;22509;-80
2022/08/04 06:28:53;;;;;;;3.40;2.80;;;;;;;43.13;24.58;96980.67;108688;1267;22569;-80
2022/08/04 06:31:42;;;;;;;3.90;3.00;;;;;;;42.83;25.45;96980.44;108495;1266;25101;-80
2022/08/04 06:34:15;;;;;;;5.50;3.10;;;;;;;43.83;25.18;96980.16;108660;1267;22694;-80
2022/08/04 06:36:48;;;;;;;3.10;2.50;;;;;;;44.50;24.64;96983.78;108616;1268;22565;-80
2022/08/04 06:39:21;;;;;;;3.80;2.70;;;;;;;44.09;23.63;96984.89;108630;1267;24210;-80
2022/08/04 06:41:54;;;;;;;2.90;2.60;;;;;;;44.20;24.01;96982.14;108273;1267;89004;-79
2022/08/04 06:44:30;;;;;;;3.20;2.60;;;;;;;44.67;24.31;96978.67;108708;1267;23222;-79
2022/08/04 06:47:02;;;;;;;2.60;2.30;;;;;;;45.66;23.94;96986.42;108681;1268;22743;-79
2022/08/04 06:49:34;;;;;;;2.50;2.30;;;;;;;46.36;23.31;96985.11;108623;1267;23723;-79
2022/08/04 06:52:07;;;;;;;3.30;2.20;;;;;;;46.32;22.24;96983.48;108656;1266;39267;-80
2022/08/04 06:54:38;;;;;;;3.10;2.30;;;;;;;46.21;22.57;96979.59;109862;1267;22450;-80
2022/08/04 06:57:15;;;;;;;4.20;2.10;;;;;;;45.95;22.44;96979.60;109958;1266;22541;-80
2022/08/04 06:59:50;;;;;;;2.90;2.30;;;;;;;45.96;22.58;96983.82;109860;1267;23112;-79
2022/08/04 07:02:25;;;;;;;2.20;2.00;;;;;;;46.51;22.59;96978.48;109881;1267;30510;-80
2022/08/04 07:04:57;;;;;;;3.50;2.00;;;;;;;47.19;21.86;96980.09;109950;1266;23490;-80
2022/08/04 07:07:31;;;;;;;2.70;1.90;;;;;;;47.20;20.63;96975.59;108935;1267;25235;-76
2022/08/04 07:10:04;;;;;;;3.40;2.20;;;;;;;46.68;21.29;96977.73;108652;1268;40359;-76
2022/08/04 07:12:36;;;;;;;3.30;2.00;;;;;;;47.08;21.14;96975.92;108669;1268;22636;-75
2022/08/04 07:15:10;;;;;;;2.70;1.90;;;;;;;47.89;21.14;96972.95;108691;1267;23317;-76
2022/08/04 07:17:43;;;;;;;1.70;1.50;;;;;;;48.50;20.70;96973.52;108687;1268;24086;-76
2022/08/04 07:20:15;;;;;;;2.10;1.50;;;;;;;49.17;20.41;96972.31;108544;1267;42417;-76
2022/08/04 07:22:48;;;;;;;2.10;1.70;;;;;;;49.34;17.63;96971.25;108641;1267;23076;-74
2022/08/04 07:25:20;;;;;;;1.70;1.50;;;;;;;46.42;17.52;96969.89;108681;1268;22764;-74
2022/08/04 07:27:54;;;;;;;1.60;1.40;;;;;;;43.64;17.65;96974.61;108607;1266;22626;-74
2022/08/04 07:30:28;;;;;;;2.30;1.60;;;;;;;42.44;19.55;96970.34;108546;1267;34734;-74
2022/08/04 07:32:59;;;;;;;2.50;1.30;;;;;;;43.37;20.69;96969.43;108677;1268;22631;-75
2022/08/04 07:35:31;;;;;;;3.30;2.00;;;;;;;43.35;19.18;96971.17;108647;1267;22984;-75
2022/08/04 07:38:04;;;;;;;2.70;1.50;;;;;;;41.92;19.64;96975.31;108643;1267;22464;-74
2022/08/04 07:40:38;;;;;;;2.80;1.70;;;;;;;40.66;20.28;96969.56;108553;1268;30566;-74
2022/08/04 07:43:11;;;;;;;1.30;1.20;;;;;;;39.55;20.74;96970.68;108521;1267;22532;-74
2022/08/04 07:45:42;;;;;;;1.60;1.40;;;;;;;38.45;21.36;96973.12;108865;1267;22584;-75
2022/08/04 07:48:14;;;;;;;2.80;1.40;;;;;;;38.28;21.66;96969.98;108652;1267;22548;-76
2022/08/04 07:50:46;;;;;;;1.80;1.10;;;;;;;38.05;21.46;96971.38;108627;1267;30833;-76
2022/08/04 07:53:18;;;;;;;1.40;1.10;;;;;;;37.57;21.86;96972.75;108678;1267;24235;-75
2022/08/04 07:55:50;;;;;;;3.00;1.50;;;;;;;37.52;22.42;96971.02;108654;1268;22598;-75
2022/08/04 07:58:21;;;;;;;1.10;1.00;;;;;;;37.97;22.76;96966.69;108520;1267;23751;-76
2022/08/04 08:00:53;;;;;;;1.10;1.00;;;;;;;38.64;21.61;96969.48;108546;1267;44192;-83
2022/08/04 08:03:27;;;;;;;3.70;1.30;;;;;;;38.40;21.41;96968.73;108651;1268;22512;-83
2022/08/04 08:05:58;;;;;;;2.20;1.00;;;;;;;37.92;21.34;96967.73;108625;1267;22563;-84
2022/08/04 08:08:30;;;;;;;1.30;1.20;;;;;;;38.26;21.50;96964.73;108600;1268;23848;-84
2022/08/04 08:11:01;;;;;;;1.80;1.30;;;;;;;38.07;21.51;96962.98;108301;1267;87712;-83
2022/08/04 08:13:33;;;;;;;1.40;1.30;;;;;;;37.74;21.38;96962.77;108515;1267;22525;-83
2022/08/04 08:16:06;;;;;;;1.80;1.40;;;;;;;37.45;21.91;96963.36;108548;1267;22545;-83
2022/08/04 08:18:38;;;;;;;2.10;1.30;;;;;;;37.45;22.48;96964.40;108512;1267;22536;-83
2022/08/04 08:21:09;;;;;;;1.60;1.50;;;;;;;37.83;22.44;96961.95;108399;1267;31636;-83
2022/08/04 08:23:41;;;;;;;3.00;1.20;;;;;;;37.98;21.82;96961.82;108502;1267;22931;-82
2022/08/04 08:26:16;;;;;;;2.40;1.30;;;;;;;37.61;21.68;96962.50;108536;1267;22542;-83
2022/08/04 08:28:48;;;;;;;2.00;1.30;;;;;;;37.60;23.17;96962.01;108534;1267;22536;-83
2022/08/04 08:31:20;;;;;;;1.90;1.30;;;;;;;37.94;22.45;96967.05;108297;1267;123627;-83
2022/08/04 08:33:53;;;;;;;2.10;1.50;;;;;;;38.30;22.46;96964.45;108511;1267;22635;-83
2022/08/04 08:36:32;;;;;;;3.10;1.40;;;;;;;38.84;21.81;96961.89;108582;1267;24259;-83
2022/08/04 08:39:07;;;;;;;1.80;1.50;;;;;;;38.70;21.56;96965.06;108587;1267;22760;-83
2022/08/04 08:42:18;;;;;;;2.70;1.50;;;;;;;37.92;21.92;96967.19;108518;1267;40094;-83
2022/08/04 08:45:26;;;;;;;1.50;1.40;;;;;;;37.73;22.49;96965.10;108536;1267;23826;-82
2022/08/04 08:48:22;;;;;;;1.50;1.30;;;;;;;38.32;22.81;96964.38;108607;1267;22632;-82
2022/08/04 08:51:10;;;;;;;3.00;1.30;;;;;;;38.69;22.01;96963.11;108535;1267;33476;-82
2022/08/04 08:54:22;;;;;;;1.90;1.40;;;;;;;37.87;21.33;96964.64;108566;1266;22539;-82
2022/08/04 08:57:10;;;;;;;1.60;1.20;;;;;;;37.15;22.48;96967.35;108272;1273;23269;-81
2022/08/04 08:59:55;;;;;;;1.70;1.40;;;;;;;37.00;22.94;96963.26;108577;1267;22568;-82
2022/08/04 09:02:53;;;;;;;2.20;1.60;;;;;;;37.16;23.61;96963.45;108573;1267;22530;-82
2022/08/04 09:05:40;;;;;;;2.50;1.70;;;;;;;37.28;22.31;96968.84;108585;1267;24239;-82
2022/08/04 09:08:26;;;;;;;1.50;1.30;;;;;;;36.89;22.54;96966.80;108631;1267;22542;-81
2022/08/04 09:11:06;;;;;;;2.10;1.80;;;;;;;37.12;23.20;96961.69;108490;1267;31917;-82
2022/08/04 09:13:45;;;;;;;3.50;1.40;;;;;;;37.14;22.55;96965.34;108602;1267;24204;-81
2022/08/04 09:16:25;;;;;;;1.70;1.20;;;;;;;36.55;23.16;96967.84;108576;1266;24251;-81
2022/08/04 09:19:07;;;;;;;3.30;1.60;;;;;;;36.23;23.26;96970.25;108541;1267;22574;-81
2022/08/04 09:21:45;;;;;;;1.70;1.60;;;;;;;34.59;24.25;96968.14;108690;1267;29734;-82
2022/08/04 09:24:23;;;;;;;2.60;1.80;;;;;;;33.15;25.86;96969.02;108683;1267;22548;-81
2022/08/04 09:27:00;;;;;;;2.50;1.80;;;;;;;31.69;28.61;96968.06;108705;1267;22699;-81
2022/08/04 09:29:41;;;;;;;2.00;1.80;;;;;;;30.81;29.75;96960.46;108683;1268;22643;-81
2022/08/04 09:32:32;;;;;;;3.60;1.80;;;;;;;30.19;30.55;96963.30;108623;1267;42920;-81
2022/08/04 09:35:19;;;;;;;8.10;2.00;;;;;;;29.23;31.91;96964.38;108470;1266;22595;-81
2022/08/04 09:38:02;;;;;;;2.50;2.00;;;;;;;28.64;32.85;96960.68;108512;1267;23519;-80
2022/08/04 09:40:39;;;;;;;4.30;1.90;;;;;;;28.39;33.67;96956.27;108496;1267;28512;-80
2022/08/04 09:43:23;;;;;;;2.60;2.10;;;;;;;28.17;35.05;96962.95;108634;1267;22535;-80
2022/08/04 09:46:05;;;;;;;2.30;1.90;;;;;;;28.03;34.69;96963.52;108648;1265;22621;-80
2022/08/04 09:48:49;;;;;;;2.50;1.90;;;;;;;27.92;35.67;96957.95;108686;1267;22683;-79
2022/08/04 09:51:36;;;;;;;2.10;1.80;;;;;;;28.22;35.50;96959.62;108581;1267;63867;-80
2022/08/04 09:54:15;;;;;;;2.90;2.20;;;;;;;28.30;35.09;96956.71;108639;1268;23899;-80
2022/08/04 09:56:58;;;;;;;4.10;2.40;;;;;;;28.07;34.77;96956.52;108646;1267;22623;-80
2022/08/04 09:59:36;;;;;;;3.10;1.90;;;;;;;28.00;35.55;96952.77;108557;1267;22547;-80
2022/08/04 10:02:11;;;;;;;2.80;2.10;;;;;;;28.20;35.63;96955.57;108459;1267;29737;-80
2022/08/04 10:04:45;;;;;;;2.40;2.20;;;;;;;28.06;35.85;96957.61;108563;1265;22529;-80
2022/08/04 10:07:39;;;;;;;3.60;2.40;;;;;;;27.96;36.36;96957.81;108640;1267;23742;-79
2022/08/04 10:10:20;;;;;;;3.20;2.20;;;;;;;28.42;36.89;96948.77;108592;1267;30780;-79
2022/08/04 10:13:14;;;;;;;2.40;2.20;;;;;;;28.67;35.53;96950.77;108647;1267;22560;-80
2022/08/04 10:15:52;;;;;;;3.20;2.70;;;;;;;28.44;35.62;96952.77;108692;1266;22834;-80
2022/08/04 10:18:40;;;;;;;2.90;2.40;;;;;;;28.32;36.27;96948.62;108679;1267;23890;-80
2022/08/04 10:21:18;;;;;;;2.70;2.50;;;;;;;28.09;35.60;96952.48;108585;1267;29593;-80
2022/08/04 10:24:07;;;;;;;2.90;2.20;;;;;;;27.80;36.47;96950.42;108646;1267;25461;-80
2022/08/04 10:26:49;;;;;;;3.30;2.60;;;;;;;27.84;36.94;96947.39;108678;1267;22739;-80
2022/08/04 10:29:28;;;;;;;2.60;2.40;;;;;;;27.73;36.25;96948.91;108644;1267;22513;-81
2022/08/04 10:32:06;;;;;;;3.50;2.80;;;;;;;27.66;36.66;96944.98;108535;1267;51914;-81
2022/08/04 10:34:43;;;;;;;2.70;2.50;;;;;;;27.77;36.54;96941.55;108487;1268;23639;-81
2022/08/04 10:37:23;;;;;;;3.10;2.70;;;;;;;27.75;36.75;96940.77;108673;1267;22669;-81
2022/08/04 10:43:00;;;;;;;3.50;2.70;;;;;;;28.10;35.47;96937.45;108569;1267;22486;-81
2022/08/04 10:45:38;;;;;;;4.80;3.40;;;;;;;28.01;36.99;96932.44;108465;1268;22584;-82
2022/08/04 10:48:16;;;;;;;3.10;2.70;;;;;;;28.05;36.10;96935.73;108513;1267;22908;-83
2022/08/04 10:50:56;;;;;;;2.90;2.60;;;;;;;27.75;36.53;96941.98;108449;1267;31765;-82
2022/08/04 10:53:32;;;;;;;3.00;2.70;;;;;;;27.59;36.45;96939.39;108554;1267;22562;-82
2022/08/04 10:56:10;;;;;;;5.10;3.00;;;;;;;27.69;37.22;96929.52;108430;1268;22551;-82
2022/08/04 10:58:46;;;;;;;3.00;2.80;;;;;;;27.97;37.22;96929.79;108544;1267;22558;-82
2022/08/04 11:01:24;;;;;;;3.50;3.20;;;;;;;28.05;36.98;96928.17;108413;1268;32417;-83
2022/08/04 11:04:00;;;;;;;2.80;2.60;;;;;;;27.86;37.79;96926.55;108729;1268;22673;-82
2022/08/04 11:06:33;;;;;;;4.60;2.90;;;;;;;27.63;37.64;96927.67;108615;1268;22549;-82
2022/08/04 11:09:05;;;;;;;4.90;3.30;;;;;;;27.55;37.77;96927.06;108574;1268;22579;-82
2022/08/04 11:11:43;;;;;;;5.10;3.70;;;;;;;27.60;38.07;96929.59;108450;1268;32947;-82
2022/08/04 11:14:17;;;;;;;3.90;3.00;;;;;;;27.70;38.27;96927.71;108580;1268;22506;-81
2022/08/04 11:16:53;;;;;;;3.30;3.00;;;;;;;28.02;37.49;96928.08;108573;1268;22588;-81
2022/08/04 11:19:35;;;;;;;3.70;3.20;;;;;;;28.10;37.37;96925.55;108623;1267;24166;-82
2022/08/04 11:22:11;;;;;;;3.40;3.10;;;;;;;28.39;38.17;96924.63;108437;1267;28934;-82
2022/08/04 11:24:52;;;;;;;3.50;3.00;;;;;;;28.56;36.40;96927.70;108485;1268;22640;-82
2022/08/04 11:27:35;;;;;;;4.00;2.90;;;;;;;28.24;36.85;96921.86;108504;1268;22883;-82
2022/08/04 11:30:10;;;;;;;3.50;3.10;;;;;;;28.14;37.54;96923.29;108262;1268;110952;-82
2022/08/04 11:32:59;;;;;;;5.00;3.00;;;;;;;28.07;36.93;96923.34;108502;1268;22611;-82
2022/08/04 11:35:36;;;;;;;3.90;2.80;;;;;;;27.89;37.87;96922.27;108586;1268;22831;-81
2022/08/04 11:38:13;;;;;;;4.30;3.60;;;;;;;28.01;38.68;96923.17;108587;1268;23941;-81
2022/08/04 11:40:47;;;;;;;6.80;3.10;;;;;;;28.31;38.88;96925.63;108518;1268;27872;-82
2022/08/04 11:43:26;;;;;;;3.50;3.20;;;;;;;28.57;38.68;96926.14;108576;1268;22523;-81
2022/08/04 11:46:02;;;;;;;3.20;2.70;;;;;;;28.72;38.40;96923.73;108584;1268;23119;-81
2022/08/04 11:48:37;;;;;;;3.30;2.60;;;;;;;28.75;38.03;96924.29;108592;1268;22544;-82
2022/08/04 11:51:11;;;;;;;3.40;3.00;;;;;;;28.72;37.90;96922.09;108433;1268;30536;-81
2022/08/04 11:53:44;;;;;;;4.80;3.10;;;;;;;28.72;38.53;96917.73;108602;1268;25377;-81
2022/08/04 11:56:17;;;;;;;3.30;2.90;;;;;;;28.84;38.93;96915.80;108569;1268;22549;-82
2022/08/04 11:58:48;;;;;;;4.90;2.90;;;;;;;28.90;39.52;96914.02;108476;1268;24167;-81
2022/08/04 12:01:26;;;;;;;4.70;2.90;;;;;;;29.04;40.03;96908.86;108519;1268;24607;-81
2022/08/04 12:04:06;;;;;;;3.30;2.70;;;;;;;29.10;39.27;96907.30;108551;1268;22523;-82
2022/08/04 12:06:47;;;;;;;5.90;3.30;;;;;;;28.85;38.61;96901.67;108592;1266;22631;-81
2022/08/04 12:09:29;;;;;;;3.30;3.00;;;;;;;28.67;39.35;96902.83;108524;1268;24208;-83
2022/08/04 12:12:13;;;;;;;4.70;2.90;;;;;;;28.56;38.69;96901.59;108502;1267;38247;-82
2022/08/04 12:14:56;;;;;;;3.30;2.80;;;;;;;28.27;38.30;96899.81;108562;1267;24265;-81
2022/08/04 12:17:34;;;;;;;4.00;2.80;;;;;;;27.90;38.47;96899.23;108561;1268;22535;-82
2022/08/04 12:20:11;;;;;;;3.30;2.50;;;;;;;27.95;39.77;96895.04;108441;1267;35193;-81
2022/08/04 12:22:49;;;;;;;2.90;2.70;;;;;;;28.21;39.64;96884.98;108469;1268;22862;-81
2022/08/04 12:25:25;;;;;;;5.00;2.90;;;;;;;28.38;39.83;96884.81;108506;1268;25328;-81
2022/08/04 12:28:01;;;;;;;3.90;2.80;;;;;;;28.45;39.83;96891.14;108540;1267;22891;-82
2022/08/04 12:30:38;;;;;;;4.50;2.70;;;;;;;28.51;39.43;96891.22;108421;1268;45966;-81
2022/08/04 12:33:15;;;;;;;3.30;2.70;;;;;;;28.62;40.17;96885.53;108466;1268;22714;-81
2022/08/04 12:35:54;;;;;;;3.20;2.90;;;;;;;28.77;39.01;96889.60;108475;1268;22698;-82
2022/08/04 12:38:33;;;;;;;3.10;2.80;;;;;;;28.61;38.53;96886.78;108514;1268;22552;-81